sensor_id;sensor_type;location;lat;lon;timestamp;P1;durP1;ratioP1;P2;durP2;ratioP2
26407;SDS011;14583;43.604;1.364;2023-11-22T00:00:14;6.78;;;2.15;;
26407;SDS011;14583;43.604;1.364;2023-11-22T00:02:40;6.15;;;2.83;;
26407;SDS011;14583;43.604;1.364;2023-11-22T00:05:06;7.22;;;2.50;;
26407;SDS011;14583;43.604;1.364;2023-11-22T00:07:32;7.18;;;2.63;;
26407;SDS011;14583;43.604;1.364;2023-11-22T00:09:58;4.32;;;2.60;;
26407;SDS011;14583;43.604;1.364;2023-11-22T00:12:24;5.15;;;2.67;;
26407;SDS011;14583;43.604;1.364;2023-11-22T00:14:50;4.45;;;2.58;;
26407;SDS011;14583;43.604;1.364;2023-11-22T00:17:16;4.95;;;2.63;;
26407;SDS011;14583;43.604;1.364;2023-11-22T00:19:43;7.70;;;3.13;;
26407;SDS011;14583;43.604;1.364;2023-11-22T00:22:09;6.78;;;2.60;;
26407;SDS011;14583;43.604;1.364;2023-11-22T00:24:40;5.85;;;2.25;;
26407;SDS011;14583;43.604;1.364;2023-11-22T00:27:06;7.78;;;2.65;;
26407;SDS011;14583;43.604;1.364;2023-11-22T00:29:32;4.63;;;2.45;;
26407;SDS011;14583;43.604;1.364;2023-11-22T00:31:58;7.28;;;2.58;;
26407;SDS011;14583;43.604;1.364;2023-11-22T00:34:25;9.40;;;2.85;;
26407;SDS011;14583;43.604;1.364;2023-11-22T00:36:51;4.75;;;2.20;;
26407;SDS011;14583;43.604;1.364;2023-11-22T00:39:17;4.63;;;2.70;;
26407;SDS011;14583;43.604;1.364;2023-11-22T00:41:43;4.68;;;2.67;;
26407;SDS011;14583;43.604;1.364;2023-11-22T00:44:09;6.00;;;2.70;;
26407;SDS011;14583;43.604;1.364;2023-11-22T00:46:35;5.95;;;3.00;;
26407;SDS011;14583;43.604;1.364;2023-11-22T00:49:04;5.60;;;2.50;;
26407;SDS011;14583;43.604;1.364;2023-11-22T00:51:31;3.72;;;2.70;;
26407;SDS011;14583;43.604;1.364;2023-11-22T00:54:00;5.78;;;2.50;;
26407;SDS011;14583;43.604;1.364;2023-11-22T00:56:26;6.03;;;2.60;;
26407;SDS011;14583;43.604;1.364;2023-11-22T00:58:52;6.57;;;2.35;;
26407;SDS011;14583;43.604;1.364;2023-11-22T01:01:18;6.85;;;2.45;;
26407;SDS011;14583;43.604;1.364;2023-11-22T01:03:44;7.25;;;2.72;;
26407;SDS011;14583;43.604;1.364;2023-11-22T01:06:11;4.03;;;2.40;;
26407;SDS011;14583;43.604;1.364;2023-11-22T01:08:37;6.57;;;2.47;;
26407;SDS011;14583;43.604;1.364;2023-11-22T01:11:03;5.85;;;2.53;;
26407;SDS011;14583;43.604;1.364;2023-11-22T01:13:30;6.88;;;2.58;;
26407;SDS011;14583;43.604;1.364;2023-11-22T01:15:57;4.30;;;2.20;;
26407;SDS011;14583;43.604;1.364;2023-11-22T01:18:23;7.10;;;2.83;;
26407;SDS011;14583;43.604;1.364;2023-11-22T01:20:49;8.52;;;2.60;;
26407;SDS011;14583;43.604;1.364;2023-11-22T01:23:15;4.68;;;2.42;;
26407;SDS011;14583;43.604;1.364;2023-11-22T01:25:41;6.90;;;2.80;;
26407;SDS011;14583;43.604;1.364;2023-11-22T01:28:07;5.25;;;2.88;;
26407;SDS011;14583;43.604;1.364;2023-11-22T01:30:32;6.18;;;3.20;;
26407;SDS011;14583;43.604;1.364;2023-11-22T01:32:58;6.25;;;3.00;;
26407;SDS011;14583;43.604;1.364;2023-11-22T01:35:24;5.55;;;2.80;;
26407;SDS011;14583;43.604;1.364;2023-11-22T01:37:50;6.00;;;2.80;;
26407;SDS011;14583;43.604;1.364;2023-11-22T01:40:17;5.28;;;2.42;;
26407;SDS011;14583;43.604;1.364;2023-11-22T01:42:44;5.32;;;2.70;;
26407;SDS011;14583;43.604;1.364;2023-11-22T01:45:11;10.65;;;2.97;;
26407;SDS011;14583;43.604;1.364;2023-11-22T01:47:37;3.55;;;2.65;;
26407;SDS011;14583;43.604;1.364;2023-11-22T01:50:07;7.25;;;2.80;;
26407;SDS011;14583;43.604;1.364;2023-11-22T01:52:34;4.10;;;2.60;;
26407;SDS011;14583;43.604;1.364;2023-11-22T01:55:00;5.88;;;2.80;;
26407;SDS011;14583;43.604;1.364;2023-11-22T01:57:29;6.72;;;3.08;;
26407;SDS011;14583;43.604;1.364;2023-11-22T01:59:58;8.13;;;2.78;;
26407;SDS011;14583;43.604;1.364;2023-11-22T02:02:25;6.10;;;2.72;;
26407;SDS011;14583;43.604;1.364;2023-11-22T02:04:51;6.88;;;3.17;;
26407;SDS011;14583;43.604;1.364;2023-11-22T02:07:17;7.32;;;2.75;;
26407;SDS011;14583;43.604;1.364;2023-11-22T02:09:43;6.85;;;2.85;;
26407;SDS011;14583;43.604;1.364;2023-11-22T02:12:10;4.18;;;2.92;;
26407;SDS011;14583;43.604;1.364;2023-11-22T02:14:37;6.00;;;2.58;;
26407;SDS011;14583;43.604;1.364;2023-11-22T02:17:03;8.73;;;3.05;;
26407;SDS011;14583;43.604;1.364;2023-11-22T02:19:29;5.85;;;2.90;;
26407;SDS011;14583;43.604;1.364;2023-11-22T02:21:55;6.57;;;2.63;;
26407;SDS011;14583;43.604;1.364;2023-11-22T02:24:21;5.88;;;2.70;;
26407;SDS011;14583;43.604;1.364;2023-11-22T02:26:47;6.80;;;2.67;;
26407;SDS011;14583;43.604;1.364;2023-11-22T02:29:12;6.57;;;2.40;;
26407;SDS011;14583;43.604;1.364;2023-11-22T02:31:42;6.40;;;2.47;;
26407;SDS011;14583;43.604;1.364;2023-11-22T02:34:08;4.55;;;2.47;;
26407;SDS011;14583;43.604;1.364;2023-11-22T02:36:34;6.55;;;2.60;;
26407;SDS011;14583;43.604;1.364;2023-11-22T02:38:59;5.97;;;2.90;;
26407;SDS011;14583;43.604;1.364;2023-11-22T02:41:28;5.32;;;2.72;;
26407;SDS011;14583;43.604;1.364;2023-11-22T02:43:57;5.57;;;2.50;;
26407;SDS011;14583;43.604;1.364;2023-11-22T02:46:23;10.52;;;2.67;;
26407;SDS011;14583;43.604;1.364;2023-11-22T02:48:49;3.85;;;2.58;;
26407;SDS011;14583;43.604;1.364;2023-11-22T02:51:14;4.82;;;2.95;;
26407;SDS011;14583;43.604;1.364;2023-11-22T02:53:42;5.68;;;2.50;;
26407;SDS011;14583;43.604;1.364;2023-11-22T02:56:08;7.10;;;2.90;;
26407;SDS011;14583;43.604;1.364;2023-11-22T02:58:34;5.30;;;2.60;;
26407;SDS011;14583;43.604;1.364;2023-11-22T03:01:00;4.80;;;2.92;;
26407;SDS011;14583;43.604;1.364;2023-11-22T03:03:26;3.33;;;2.45;;
26407;SDS011;14583;43.604;1.364;2023-11-22T03:05:52;4.90;;;2.40;;
26407;SDS011;14583;43.604;1.364;2023-11-22T03:08:18;5.68;;;2.88;;
26407;SDS011;14583;43.604;1.364;2023-11-22T03:10:44;4.25;;;2.40;;
26407;SDS011;14583;43.604;1.364;2023-11-22T03:13:09;7.60;;;2.92;;
26407;SDS011;14583;43.604;1.364;2023-11-22T03:15:35;4.15;;;3.03;;
26407;SDS011;14583;43.604;1.364;2023-11-22T03:18:01;6.22;;;2.92;;
26407;SDS011;14583;43.604;1.364;2023-11-22T03:20:28;4.70;;;2.78;;
26407;SDS011;14583;43.604;1.364;2023-11-22T03:22:53;4.88;;;2.33;;
26407;SDS011;14583;43.604;1.364;2023-11-22T03:25:20;5.93;;;2.55;;
26407;SDS011;14583;43.604;1.364;2023-11-22T03:27:46;7.93;;;2.72;;
26407;SDS011;14583;43.604;1.364;2023-11-22T03:30:12;4.93;;;2.60;;
26407;SDS011;14583;43.604;1.364;2023-11-22T03:32:40;4.82;;;2.25;;
26407;SDS011;14583;43.604;1.364;2023-11-22T03:35:06;4.25;;;2.47;;
26407;SDS011;14583;43.604;1.364;2023-11-22T03:37:33;5.63;;;2.30;;
26407;SDS011;14583;43.604;1.364;2023-11-22T03:39:59;2.88;;;2.33;;
26407;SDS011;14583;43.604;1.364;2023-11-22T03:42:24;6.93;;;2.53;;
26407;SDS011;14583;43.604;1.364;2023-11-22T03:44:51;5.70;;;2.40;;
26407;SDS011;14583;43.604;1.364;2023-11-22T03:47:18;3.95;;;2.30;;
26407;SDS011;14583;43.604;1.364;2023-11-22T03:49:44;5.00;;;2.50;;
26407;SDS011;14583;43.604;1.364;2023-11-22T03:52:10;2.78;;;2.25;;
26407;SDS011;14583;43.604;1.364;2023-11-22T03:54:36;6.85;;;2.42;;
26407;SDS011;14583;43.604;1.364;2023-11-22T03:57:03;3.10;;;2.30;;
26407;SDS011;14583;43.604;1.364;2023-11-22T03:59:29;4.57;;;2.53;;
26407;SDS011;14583;43.604;1.364;2023-11-22T04:01:55;3.47;;;2.60;;
26407;SDS011;14583;43.604;1.364;2023-11-22T04:04:21;3.20;;;2.45;;
26407;SDS011;14583;43.604;1.364;2023-11-22T04:06:46;2.95;;;2.28;;
26407;SDS011;14583;43.604;1.364;2023-11-22T04:09:12;4.45;;;3.15;;
26407;SDS011;14583;43.604;1.364;2023-11-22T04:11:38;7.57;;;2.80;;
26407;SDS011;14583;43.604;1.364;2023-11-22T04:14:04;7.63;;;2.72;;
26407;SDS011;14583;43.604;1.364;2023-11-22T04:16:30;2.60;;;2.40;;
26407;SDS011;14583;43.604;1.364;2023-11-22T04:18:56;7.13;;;2.72;;
26407;SDS011;14583;43.604;1.364;2023-11-22T04:21:22;3.25;;;2.80;;
26407;SDS011;14583;43.604;1.364;2023-11-22T04:23:49;4.93;;;2.70;;
26407;SDS011;14583;43.604;1.364;2023-11-22T04:26:14;6.78;;;2.92;;
26407;SDS011;14583;43.604;1.364;2023-11-22T04:28:41;3.70;;;2.38;;
26407;SDS011;14583;43.604;1.364;2023-11-22T04:31:06;6.40;;;2.60;;
26407;SDS011;14583;43.604;1.364;2023-11-22T04:33:34;4.35;;;2.50;;
26407;SDS011;14583;43.604;1.364;2023-11-22T04:35:59;6.22;;;2.60;;
26407;SDS011;14583;43.604;1.364;2023-11-22T04:38:26;4.07;;;2.35;;
26407;SDS011;14583;43.604;1.364;2023-11-22T04:40:52;6.30;;;2.70;;
26407;SDS011;14583;43.604;1.364;2023-11-22T04:43:18;4.57;;;2.80;;
26407;SDS011;14583;43.604;1.364;2023-11-22T04:45:44;3.70;;;2.67;;
26407;SDS011;14583;43.604;1.364;2023-11-22T04:48:10;4.47;;;2.78;;
26407;SDS011;14583;43.604;1.364;2023-11-22T04:50:36;7.47;;;2.85;;
26407;SDS011;14583;43.604;1.364;2023-11-22T04:53:01;4.82;;;3.10;;
26407;SDS011;14583;43.604;1.364;2023-11-22T04:55:27;3.20;;;2.80;;
26407;SDS011;14583;43.604;1.364;2023-11-22T04:57:53;3.85;;;2.70;;
26407;SDS011;14583;43.604;1.364;2023-11-22T05:00:20;3.85;;;3.08;;
26407;SDS011;14583;43.604;1.364;2023-11-22T05:02:50;3.38;;;2.60;;
26407;SDS011;14583;43.604;1.364;2023-11-22T05:05:15;5.22;;;3.03;;
26407;SDS011;14583;43.604;1.364;2023-11-22T05:07:41;6.70;;;3.20;;
26407;SDS011;14583;43.604;1.364;2023-11-22T05:10:07;5.22;;;2.92;;
26407;SDS011;14583;43.604;1.364;2023-11-22T05:12:34;3.63;;;2.85;;
26407;SDS011;14583;43.604;1.364;2023-11-22T05:15:00;3.33;;;2.70;;
26407;SDS011;14583;43.604;1.364;2023-11-22T05:17:26;4.63;;;3.15;;
26407;SDS011;14583;43.604;1.364;2023-11-22T05:19:52;8.75;;;2.95;;
26407;SDS011;14583;43.604;1.364;2023-11-22T05:22:17;5.18;;;2.97;;
26407;SDS011;14583;43.604;1.364;2023-11-22T05:24:43;5.80;;;2.72;;
26407;SDS011;14583;43.604;1.364;2023-11-22T05:27:09;2.92;;;2.13;;
26407;SDS011;14583;43.604;1.364;2023-11-22T05:29:35;4.55;;;2.60;;
26407;SDS011;14583;43.604;1.364;2023-11-22T05:32:01;3.35;;;2.03;;
26407;SDS011;14583;43.604;1.364;2023-11-22T05:34:28;2.92;;;2.38;;
26407;SDS011;14583;43.604;1.364;2023-11-22T05:36:54;3.10;;;2.38;;
26407;SDS011;14583;43.604;1.364;2023-11-22T05:39:20;3.47;;;2.13;;
26407;SDS011;14583;43.604;1.364;2023-11-22T05:41:47;3.25;;;1.92;;
26407;SDS011;14583;43.604;1.364;2023-11-22T05:44:13;5.10;;;2.08;;
26407;SDS011;14583;43.604;1.364;2023-11-22T05:46:39;2.05;;;1.85;;
26407;SDS011;14583;43.604;1.364;2023-11-22T05:49:05;5.28;;;2.55;;
26407;SDS011;14583;43.604;1.364;2023-11-22T05:51:32;5.05;;;2.28;;
26407;SDS011;14583;43.604;1.364;2023-11-22T05:53:58;6.35;;;2.42;;
26407;SDS011;14583;43.604;1.364;2023-11-22T05:56:24;4.88;;;2.75;;
26407;SDS011;14583;43.604;1.364;2023-11-22T05:58:50;2.47;;;2.00;;
26407;SDS011;14583;43.604;1.364;2023-11-22T06:01:16;2.67;;;2.17;;
26407;SDS011;14583;43.604;1.364;2023-11-22T06:03:42;3.22;;;2.63;;
26407;SDS011;14583;43.604;1.364;2023-11-22T06:06:07;2.80;;;2.25;;
26407;SDS011;14583;43.604;1.364;2023-11-22T06:08:33;6.13;;;2.40;;
26407;SDS011;14583;43.604;1.364;2023-11-22T06:10:59;5.18;;;2.83;;
26407;SDS011;14583;43.604;1.364;2023-11-22T06:13:28;6.30;;;2.30;;
26407;SDS011;14583;43.604;1.364;2023-11-22T06:15:53;4.90;;;2.80;;
26407;SDS011;14583;43.604;1.364;2023-11-22T06:18:19;2.97;;;2.63;;
26407;SDS011;14583;43.604;1.364;2023-11-22T06:20:45;3.75;;;2.80;;
26407;SDS011;14583;43.604;1.364;2023-11-22T06:23:14;6.05;;;2.83;;
26407;SDS011;14583;43.604;1.364;2023-11-22T06:25:39;4.03;;;2.50;;
26407;SDS011;14583;43.604;1.364;2023-11-22T06:28:07;2.88;;;2.45;;
26407;SDS011;14583;43.604;1.364;2023-11-22T06:30:32;4.82;;;2.70;;
26407;SDS011;14583;43.604;1.364;2023-11-22T06:33:00;6.93;;;3.10;;
26407;SDS011;14583;43.604;1.364;2023-11-22T06:35:26;3.65;;;2.53;;
26407;SDS011;14583;43.604;1.364;2023-11-22T06:37:52;4.05;;;2.78;;
26407;SDS011;14583;43.604;1.364;2023-11-22T06:40:18;3.80;;;2.47;;
26407;SDS011;14583;43.604;1.364;2023-11-22T06:42:46;4.53;;;2.88;;
26407;SDS011;14583;43.604;1.364;2023-11-22T06:45:11;4.13;;;3.03;;
26407;SDS011;14583;43.604;1.364;2023-11-22T06:47:40;5.75;;;2.95;;
26407;SDS011;14583;43.604;1.364;2023-11-22T06:50:07;6.78;;;2.65;;
26407;SDS011;14583;43.604;1.364;2023-11-22T06:52:39;7.88;;;3.03;;
26407;SDS011;14583;43.604;1.364;2023-11-22T06:55:05;4.18;;;2.85;;
26407;SDS011;14583;43.604;1.364;2023-11-22T06:57:37;8.70;;;3.25;;
26407;SDS011;14583;43.604;1.364;2023-11-22T07:00:04;6.60;;;2.70;;
26407;SDS011;14583;43.604;1.364;2023-11-22T07:02:33;5.03;;;2.95;;
26407;SDS011;14583;43.604;1.364;2023-11-22T07:05:02;6.03;;;3.00;;
26407;SDS011;14583;43.604;1.364;2023-11-22T07:07:29;7.65;;;3.90;;
26407;SDS011;14583;43.604;1.364;2023-11-22T07:09:55;4.15;;;3.28;;
26407;SDS011;14583;43.604;1.364;2023-11-22T07:12:26;5.25;;;2.83;;
26407;SDS011;14583;43.604;1.364;2023-11-22T07:14:52;5.13;;;3.20;;
26407;SDS011;14583;43.604;1.364;2023-11-22T07:17:18;10.55;;;2.95;;
26407;SDS011;14583;43.604;1.364;2023-11-22T07:19:44;3.72;;;2.80;;
26407;SDS011;14583;43.604;1.364;2023-11-22T07:22:13;6.07;;;3.08;;
26407;SDS011;14583;43.604;1.364;2023-11-22T07:24:44;2.97;;;2.67;;
26407;SDS011;14583;43.604;1.364;2023-11-22T07:27:12;4.57;;;2.90;;
26407;SDS011;14583;43.604;1.364;2023-11-22T07:29:42;4.40;;;3.10;;
26407;SDS011;14583;43.604;1.364;2023-11-22T07:32:09;5.80;;;3.13;;
26407;SDS011;14583;43.604;1.364;2023-11-22T07:34:35;5.22;;;3.30;;
26407;SDS011;14583;43.604;1.364;2023-11-22T07:37:02;5.00;;;3.35;;
26407;SDS011;14583;43.604;1.364;2023-11-22T07:39:28;4.50;;;3.33;;
26407;SDS011;14583;43.604;1.364;2023-11-22T07:41:56;6.30;;;3.45;;
26407;SDS011;14583;43.604;1.364;2023-11-22T07:44:22;5.68;;;3.33;;
26407;SDS011;14583;43.604;1.364;2023-11-22T07:46:51;4.32;;;3.38;;
26407;SDS011;14583;43.604;1.364;2023-11-22T07:49:19;5.00;;;3.47;;
26407;SDS011;14583;43.604;1.364;2023-11-22T07:51:45;6.72;;;3.40;;
26407;SDS011;14583;43.604;1.364;2023-11-22T07:54:10;4.47;;;3.60;;
26407;SDS011;14583;43.604;1.364;2023-11-22T07:56:43;6.07;;;3.20;;
26407;SDS011;14583;43.604;1.364;2023-11-22T07:59:12;3.83;;;3.15;;
26407;SDS011;14583;43.604;1.364;2023-11-22T08:01:38;6.88;;;3.53;;
26407;SDS011;14583;43.604;1.364;2023-11-22T08:04:04;6.43;;;3.20;;
26407;SDS011;14583;43.604;1.364;2023-11-22T08:06:34;11.27;;;3.42;;
26407;SDS011;14583;43.604;1.364;2023-11-22T08:09:00;4.95;;;3.22;;
26407;SDS011;14583;43.604;1.364;2023-11-22T08:11:26;5.05;;;3.90;;
26407;SDS011;14583;43.604;1.364;2023-11-22T08:13:53;8.18;;;3.17;;
26407;SDS011;14583;43.604;1.364;2023-11-22T08:16:22;7.75;;;3.10;;
26407;SDS011;14583;43.604;1.364;2023-11-22T08:18:48;3.65;;;3.05;;
26407;SDS011;14583;43.604;1.364;2023-11-22T08:21:14;4.88;;;3.28;;
26407;SDS011;14583;43.604;1.364;2023-11-22T08:23:40;5.53;;;2.95;;
26407;SDS011;14583;43.604;1.364;2023-11-22T08:26:05;6.32;;;3.30;;
26407;SDS011;14583;43.604;1.364;2023-11-22T08:28:33;5.70;;;2.92;;
26407;SDS011;14583;43.604;1.364;2023-11-22T08:30:59;5.47;;;3.35;;
26407;SDS011;14583;43.604;1.364;2023-11-22T08:33:26;5.47;;;3.28;;
26407;SDS011;14583;43.604;1.364;2023-11-22T08:35:51;9.35;;;4.00;;
26407;SDS011;14583;43.604;1.364;2023-11-22T08:38:23;5.78;;;3.38;;
26407;SDS011;14583;43.604;1.364;2023-11-22T08:40:50;5.00;;;2.95;;
26407;SDS011;14583;43.604;1.364;2023-11-22T08:43:16;5.32;;;3.13;;
26407;SDS011;14583;43.604;1.364;2023-11-22T08:45:41;10.18;;;3.45;;
26407;SDS011;14583;43.604;1.364;2023-11-22T08:48:09;5.78;;;3.05;;
26407;SDS011;14583;43.604;1.364;2023-11-22T08:50:35;7.95;;;3.20;;
26407;SDS011;14583;43.604;1.364;2023-11-22T08:53:00;8.43;;;3.25;;
26407;SDS011;14583;43.604;1.364;2023-11-22T08:55:26;6.93;;;3.15;;
26407;SDS011;14583;43.604;1.364;2023-11-22T08:57:52;8.18;;;3.50;;
26407;SDS011;14583;43.604;1.364;2023-11-22T09:00:17;8.38;;;3.13;;
26407;SDS011;14583;43.604;1.364;2023-11-22T09:02:50;7.95;;;3.15;;
26407;SDS011;14583;43.604;1.364;2023-11-22T09:05:16;4.32;;;2.88;;
26407;SDS011;14583;43.604;1.364;2023-11-22T09:07:45;4.45;;;3.20;;
26407;SDS011;14583;43.604;1.364;2023-11-22T09:10:11;11.70;;;3.47;;
26407;SDS011;14583;43.604;1.364;2023-11-22T09:12:39;7.93;;;3.05;;
26407;SDS011;14583;43.604;1.364;2023-11-22T09:15:06;9.68;;;3.60;;
26407;SDS011;14583;43.604;1.364;2023-11-22T09:17:39;9.07;;;3.40;;
26407;SDS011;14583;43.604;1.364;2023-11-22T09:22:47;9.95;;;3.40;;
26407;SDS011;14583;43.604;1.364;2023-11-22T09:25:17;4.45;;;2.95;;
26407;SDS011;14583;43.604;1.364;2023-11-22T09:27:45;7.68;;;3.20;;
26407;SDS011;14583;43.604;1.364;2023-11-22T09:30:13;9.75;;;3.42;;
26407;SDS011;14583;43.604;1.364;2023-11-22T09:35:23;3.90;;;2.75;;
26407;SDS011;14583;43.604;1.364;2023-11-22T09:37:48;8.32;;;3.70;;
26407;SDS011;14583;43.604;1.364;2023-11-22T09:40:19;5.05;;;3.00;;
26407;SDS011;14583;43.604;1.364;2023-11-22T09:42:47;6.82;;;2.95;;
26407;SDS011;14583;43.604;1.364;2023-11-22T09:45:20;4.70;;;3.03;;
26407;SDS011;14583;43.604;1.364;2023-11-22T09:47:46;8.52;;;2.72;;
26407;SDS011;14583;43.604;1.364;2023-11-22T09:53:19;6.75;;;3.20;;
26407;SDS011;14583;43.604;1.364;2023-11-22T09:55:51;6.30;;;2.90;;
26407;SDS011;14583;43.604;1.364;2023-11-22T09:58:17;4.63;;;2.92;;
26407;SDS011;14583;43.604;1.364;2023-11-22T10:00:45;4.78;;;2.80;;
26407;SDS011;14583;43.604;1.364;2023-11-22T10:03:11;3.17;;;2.60;;
26407;SDS011;14583;43.604;1.364;2023-11-22T10:05:42;6.95;;;2.70;;
26407;SDS011;14583;43.604;1.364;2023-11-22T10:08:08;2.85;;;2.50;;
26407;SDS011;14583;43.604;1.364;2023-11-22T10:10:37;7.03;;;2.90;;
26407;SDS011;14583;43.604;1.364;2023-11-22T10:13:05;4.05;;;2.80;;
26407;SDS011;14583;43.604;1.364;2023-11-22T10:15:30;5.40;;;2.90;;
26407;SDS011;14583;43.604;1.364;2023-11-22T10:17:57;4.63;;;2.47;;
26407;SDS011;14583;43.604;1.364;2023-11-22T10:20:35;3.30;;;2.50;;
26407;SDS011;14583;43.604;1.364;2023-11-22T10:23:03;6.90;;;3.25;;
26407;SDS011;14583;43.604;1.364;2023-11-22T10:25:29;3.88;;;2.63;;
26407;SDS011;14583;43.604;1.364;2023-11-22T10:27:57;7.97;;;2.90;;
26407;SDS011;14583;43.604;1.364;2023-11-22T10:30:23;4.43;;;2.45;;
26407;SDS011;14583;43.604;1.364;2023-11-22T10:32:49;4.07;;;2.88;;
26407;SDS011;14583;43.604;1.364;2023-11-22T10:35:17;6.28;;;2.92;;
26407;SDS011;14583;43.604;1.364;2023-11-22T10:37:47;4.07;;;2.70;;
26407;SDS011;14583;43.604;1.364;2023-11-22T10:40:13;5.90;;;2.60;;
26407;SDS011;14583;43.604;1.364;2023-11-22T10:42:41;11.00;;;3.10;;
26407;SDS011;14583;43.604;1.364;2023-11-22T10:45:10;4.57;;;2.80;;
26407;SDS011;14583;43.604;1.364;2023-11-22T10:47:39;5.50;;;2.65;;
26407;SDS011;14583;43.604;1.364;2023-11-22T10:50:07;5.55;;;2.80;;
26407;SDS011;14583;43.604;1.364;2023-11-22T10:52:33;3.95;;;2.50;;
26407;SDS011;14583;43.604;1.364;2023-11-22T10:55:04;4.63;;;2.60;;
26407;SDS011;14583;43.604;1.364;2023-11-22T10:57:36;6.78;;;2.72;;
26407;SDS011;14583;43.604;1.364;2023-11-22T11:00:10;4.25;;;2.60;;
26407;SDS011;14583;43.604;1.364;2023-11-22T11:02:41;3.28;;;2.38;;
26407;SDS011;14583;43.604;1.364;2023-11-22T11:05:21;6.03;;;2.63;;
26407;SDS011;14583;43.604;1.364;2023-11-22T11:08:07;6.50;;;2.55;;
26407;SDS011;14583;43.604;1.364;2023-11-22T11:10:40;5.03;;;2.70;;
26407;SDS011;14583;43.604;1.364;2023-11-22T11:13:07;3.78;;;2.50;;
26407;SDS011;14583;43.604;1.364;2023-11-22T11:15:38;5.22;;;2.60;;
26407;SDS011;14583;43.604;1.364;2023-11-22T11:18:08;4.82;;;2.65;;
26407;SDS011;14583;43.604;1.364;2023-11-22T11:23:24;5.35;;;2.60;;
26407;SDS011;14583;43.604;1.364;2023-11-22T11:25:54;3.25;;;2.40;;
26407;SDS011;14583;43.604;1.364;2023-11-22T11:28:24;3.72;;;2.42;;
26407;SDS011;14583;43.604;1.364;2023-11-22T11:30:53;7.90;;;2.55;;
26407;SDS011;14583;43.604;1.364;2023-11-22T11:33:26;4.82;;;2.08;;
26407;SDS011;14583;43.604;1.364;2023-11-22T11:35:52;3.83;;;2.20;;
26407;SDS011;14583;43.604;1.364;2023-11-22T11:38:27;4.63;;;2.53;;
26407;SDS011;14583;43.604;1.364;2023-11-22T11:41:11;4.55;;;2.53;;
26407;SDS011;14583;43.604;1.364;2023-11-22T11:43:42;6.45;;;2.38;;
26407;SDS011;14583;43.604;1.364;2023-11-22T11:46:12;6.00;;;2.83;;
26407;SDS011;14583;43.604;1.364;2023-11-22T11:48:45;3.80;;;2.40;;
26407;SDS011;14583;43.604;1.364;2023-11-22T11:51:18;3.20;;;2.42;;
26407;SDS011;14583;43.604;1.364;2023-11-22T11:53:45;4.95;;;2.20;;
26407;SDS011;14583;43.604;1.364;2023-11-22T11:56:11;6.00;;;2.17;;
26407;SDS011;14583;43.604;1.364;2023-11-22T11:58:38;4.43;;;2.63;;
26407;SDS011;14583;43.604;1.364;2023-11-22T12:01:05;7.28;;;2.83;;
26407;SDS011;14583;43.604;1.364;2023-11-22T12:03:32;3.83;;;2.90;;
26407;SDS011;14583;43.604;1.364;2023-11-22T12:05:58;5.07;;;2.75;;
26407;SDS011;14583;43.604;1.364;2023-11-22T12:08:25;5.97;;;2.72;;
26407;SDS011;14583;43.604;1.364;2023-11-22T12:10:55;6.35;;;2.90;;
26407;SDS011;14583;43.604;1.364;2023-11-22T12:13:24;6.32;;;3.03;;
26407;SDS011;14583;43.604;1.364;2023-11-22T12:15:50;6.30;;;2.65;;
26407;SDS011;14583;43.604;1.364;2023-11-22T12:18:18;5.10;;;2.70;;
26407;SDS011;14583;43.604;1.364;2023-11-22T12:23:30;5.30;;;2.63;;
26407;SDS011;14583;43.604;1.364;2023-11-22T12:25:57;4.93;;;2.60;;
26407;SDS011;14583;43.604;1.364;2023-11-22T12:28:27;4.50;;;2.58;;
26407;SDS011;14583;43.604;1.364;2023-11-22T12:30:54;3.17;;;2.42;;
26407;SDS011;14583;43.604;1.364;2023-11-22T12:33:20;3.55;;;2.15;;
26407;SDS011;14583;43.604;1.364;2023-11-22T12:35:46;3.22;;;2.40;;
26407;SDS011;14583;43.604;1.364;2023-11-22T12:38:14;5.03;;;2.80;;
26407;SDS011;14583;43.604;1.364;2023-11-22T12:40:44;4.55;;;2.50;;
26407;SDS011;14583;43.604;1.364;2023-11-22T12:45:42;7.28;;;3.13;;
26407;SDS011;14583;43.604;1.364;2023-11-22T12:48:19;5.90;;;2.80;;
26407;SDS011;14583;43.604;1.364;2023-11-22T12:50:46;5.63;;;3.05;;
26407;SDS011;14583;43.604;1.364;2023-11-22T12:53:12;6.53;;;2.80;;
26407;SDS011;14583;43.604;1.364;2023-11-22T12:55:43;6.15;;;2.60;;
26407;SDS011;14583;43.604;1.364;2023-11-22T12:58:10;6.57;;;2.42;;
26407;SDS011;14583;43.604;1.364;2023-11-22T13:00:37;5.00;;;2.70;;
26407;SDS011;14583;43.604;1.364;2023-11-22T13:03:06;5.97;;;2.67;;
26407;SDS011;14583;43.604;1.364;2023-11-22T13:05:32;4.30;;;2.30;;
26407;SDS011;14583;43.604;1.364;2023-11-22T13:07:58;5.72;;;2.75;;
26407;SDS011;14583;43.604;1.364;2023-11-22T13:10:24;7.28;;;2.47;;
26407;SDS011;14583;43.604;1.364;2023-11-22T13:12:51;4.78;;;2.60;;
26407;SDS011;14583;43.604;1.364;2023-11-22T13:15:19;5.35;;;2.45;;
26407;SDS011;14583;43.604;1.364;2023-11-22T13:17:49;4.07;;;2.13;;
26407;SDS011;14583;43.604;1.364;2023-11-22T13:20:16;4.65;;;2.10;;
26407;SDS011;14583;43.604;1.364;2023-11-22T13:22:44;4.97;;;2.13;;
26407;SDS011;14583;43.604;1.364;2023-11-22T13:25:12;7.90;;;2.50;;
26407;SDS011;14583;43.604;1.364;2023-11-22T13:27:42;5.80;;;2.17;;
26407;SDS011;14583;43.604;1.364;2023-11-22T13:30:08;3.22;;;2.05;;
26407;SDS011;14583;43.604;1.364;2023-11-22T13:32:34;6.55;;;2.42;;
26407;SDS011;14583;43.604;1.364;2023-11-22T13:35:00;4.30;;;2.20;;
26407;SDS011;14583;43.604;1.364;2023-11-22T13:37:26;4.95;;;2.20;;
26407;SDS011;14583;43.604;1.364;2023-11-22T13:39:52;4.38;;;2.28;;
26407;SDS011;14583;43.604;1.364;2023-11-22T13:42:18;2.40;;;1.80;;
26407;SDS011;14583;43.604;1.364;2023-11-22T13:44:44;3.58;;;2.10;;
26407;SDS011;14583;43.604;1.364;2023-11-22T13:47:10;2.83;;;1.90;;
26407;SDS011;14583;43.604;1.364;2023-11-22T13:49:36;4.60;;;2.20;;
26407;SDS011;14583;43.604;1.364;2023-11-22T13:52:02;4.10;;;2.10;;
26407;SDS011;14583;43.604;1.364;2023-11-22T13:54:28;3.65;;;1.92;;
26407;SDS011;14583;43.604;1.364;2023-11-22T13:56:54;4.82;;;2.13;;
26407;SDS011;14583;43.604;1.364;2023-11-22T13:59:20;3.67;;;2.00;;
26407;SDS011;14583;43.604;1.364;2023-11-22T14:01:45;8.93;;;2.30;;
26407;SDS011;14583;43.604;1.364;2023-11-22T14:04:11;4.05;;;2.60;;
26407;SDS011;14583;43.604;1.364;2023-11-22T14:06:37;5.93;;;2.50;;
26407;SDS011;14583;43.604;1.364;2023-11-22T14:09:02;3.65;;;2.33;;
26407;SDS011;14583;43.604;1.364;2023-11-22T14:11:28;4.90;;;2.30;;
26407;SDS011;14583;43.604;1.364;2023-11-22T14:13:54;7.45;;;2.33;;
26407;SDS011;14583;43.604;1.364;2023-11-22T14:16:20;2.97;;;2.00;;
26407;SDS011;14583;43.604;1.364;2023-11-22T14:18:47;3.55;;;2.08;;
26407;SDS011;14583;43.604;1.364;2023-11-22T14:21:13;4.53;;;2.10;;
26407;SDS011;14583;43.604;1.364;2023-11-22T14:23:39;4.00;;;1.92;;
26407;SDS011;14583;43.604;1.364;2023-11-22T14:26:05;2.90;;;2.00;;
26407;SDS011;14583;43.604;1.364;2023-11-22T14:28:31;5.57;;;2.58;;
26407;SDS011;14583;43.604;1.364;2023-11-22T14:30:58;4.22;;;2.65;;
26407;SDS011;14583;43.604;1.364;2023-11-22T14:33:23;5.57;;;2.10;;
26407;SDS011;14583;43.604;1.364;2023-11-22T14:35:49;3.58;;;2.30;;
26407;SDS011;14583;43.604;1.364;2023-11-22T14:38:14;4.18;;;2.00;;
26407;SDS011;14583;43.604;1.364;2023-11-22T14:40:40;4.57;;;2.20;;
26407;SDS011;14583;43.604;1.364;2023-11-22T14:43:07;2.70;;;1.88;;
26407;SDS011;14583;43.604;1.364;2023-11-22T14:45:33;3.17;;;2.22;;
26407;SDS011;14583;43.604;1.364;2023-11-22T14:47:58;6.03;;;2.20;;
26407;SDS011;14583;43.604;1.364;2023-11-22T14:50:26;4.35;;;2.15;;
26407;SDS011;14583;43.604;1.364;2023-11-22T14:52:52;5.45;;;1.70;;
26407;SDS011;14583;43.604;1.364;2023-11-22T14:55:19;4.80;;;1.85;;
26407;SDS011;14583;43.604;1.364;2023-11-22T14:57:46;2.78;;;2.10;;
26407;SDS011;14583;43.604;1.364;2023-11-22T15:00:12;2.58;;;1.58;;
26407;SDS011;14583;43.604;1.364;2023-11-22T15:02:42;1.90;;;1.50;;